Aviation Digital Data Service (ADDS)

Output produced by METARs form (0858 UTC 27 April 2015)
found at http://aviationweather.gov/adds/metars/
 
KHLG 270520Z 2706/2806 32006KT P6SM SCT060 
     FM271600 30010G18KT 5SM -SHRASN OVC025 
     FM272100 32012G22KT P6SM BKN035 
     FM280000 36007KT P6SM SCT035